createdAt,value
2023-01-29T00:03:08.371Z,1020.406
2023-01-29T00:23:07.288Z,1020.076
2023-01-29T00:43:08.128Z,1020.095
2023-01-29T01:03:09.066Z,1020.079
2023-01-29T01:23:08.183Z,1020.133
2023-01-29T01:43:08.045Z,1019.631
2023-01-29T02:03:08.655Z,1019.699
2023-01-29T02:23:07.660Z,1020.011
2023-01-29T02:43:07.551Z,1019.97
2023-01-29T03:03:08.374Z,1020.077
2023-01-29T03:23:07.314Z,1019.902
2023-01-29T03:43:07.192Z,1019.876
2023-01-29T04:03:07.941Z,1019.777
2023-01-29T04:23:07.882Z,1019.679
2023-01-29T04:43:07.861Z,1019.031
2023-01-29T05:03:09.022Z,1018.603
2023-01-29T05:23:08.048Z,1018.464
2023-01-29T05:43:08.149Z,1019.023
2023-01-29T06:03:08.247Z,1019.099
2023-01-29T06:23:08.143Z,1019.11
2023-01-29T06:43:07.983Z,1019.223
2023-01-29T07:03:08.822Z,1019.219
2023-01-29T07:23:07.660Z,1019.082
2023-01-29T07:43:07.591Z,1019.257
2023-01-29T08:03:08.455Z,1019.038
2023-01-29T08:23:07.457Z,1018.772
2023-01-29T08:43:10.129Z,1018.327
2023-01-29T09:03:09.225Z,1018.531
2023-01-29T09:23:08.136Z,1018.107
2023-01-29T09:43:08.007Z,1018.048
2023-01-29T10:23:07.494Z,1017.899
2023-01-29T10:43:07.416Z,1017.532
2023-01-29T11:03:29.555Z,1017.075
2023-01-29T11:23:08.671Z,1016.995
2023-01-29T11:43:07.831Z,1016.641
2023-01-29T12:03:08.716Z,1016.363
2023-01-29T12:23:07.732Z,1015.862
2023-01-29T12:43:07.919Z,1015.529
2023-01-29T13:03:09.305Z,1015.3
2023-01-29T13:23:07.267Z,1015.173
2023-01-29T13:43:07.474Z,1015.14
2023-01-29T14:03:08.464Z,1014.944
2023-01-29T14:23:07.538Z,1014.657
2023-01-29T14:43:07.673Z,1014.7
2023-01-29T15:03:08.916Z,1014.61
2023-01-29T15:23:07.803Z,1014.431
2023-01-29T15:43:07.970Z,1014.331
2023-01-29T16:03:09.013Z,1014.223
2023-01-29T16:23:08.078Z,1014.024
2023-01-29T16:43:08.088Z,1013.825
2023-01-29T17:03:09.114Z,1013.479
2023-01-29T17:23:07.911Z,1013.259
2023-01-29T17:43:08.078Z,1013.054
2023-01-29T18:03:08.992Z,1012.949
2023-01-29T18:23:08.001Z,1012.525
2023-01-29T18:43:08.319Z,1012.225
2023-01-29T19:03:08.249Z,1011.739
2023-01-29T19:23:07.300Z,1011.583
2023-01-29T19:43:07.309Z,1011.251
2023-01-29T20:03:08.387Z,1011.121
2023-01-29T20:23:07.293Z,1010.659
2023-01-29T20:43:07.355Z,1010.224
2023-01-29T21:03:08.397Z,1010.116
2023-01-29T21:23:08.355Z,1009.924
2023-01-29T21:43:07.737Z,1009.741
2023-01-29T22:03:08.935Z,1009.94
2023-01-29T22:23:07.937Z,1009.862
2023-01-29T22:43:08.153Z,1009.588
2023-01-29T23:03:08.388Z,1008.89
2023-01-29T23:23:07.166Z,1007.698
2023-01-29T23:43:08.023Z,1008.096
